sensor_id;sensor_type;location;lat;lon;timestamp;P1;durP1;ratioP1;P2;durP2;ratioP2
20101;SDS011;10210;52.284;9.892;2024-01-11T00:00:16;34.00;;;15.47;;
20101;SDS011;10210;52.284;9.892;2024-01-11T00:02:41;33.53;;;14.57;;
20101;SDS011;10210;52.284;9.892;2024-01-11T00:05:07;35.60;;;16.17;;
20101;SDS011;10210;52.284;9.892;2024-01-11T00:07:34;31.53;;;14.53;;
20101;SDS011;10210;52.284;9.892;2024-01-11T00:10:00;35.57;;;14.67;;
20101;SDS011;10210;52.284;9.892;2024-01-11T00:12:27;35.80;;;15.17;;
20101;SDS011;10210;52.284;9.892;2024-01-11T00:14:53;31.43;;;13.63;;
20101;SDS011;10210;52.284;9.892;2024-01-11T00:17:19;32.17;;;13.30;;
20101;SDS011;10210;52.284;9.892;2024-01-11T00:19:45;34.27;;;13.93;;
20101;SDS011;10210;52.284;9.892;2024-01-11T00:22:11;33.70;;;15.63;;
20101;SDS011;10210;52.284;9.892;2024-01-11T00:24:36;32.33;;;14.33;;
20101;SDS011;10210;52.284;9.892;2024-01-11T00:27:02;31.97;;;13.60;;
20101;SDS011;10210;52.284;9.892;2024-01-11T00:29:28;32.90;;;13.43;;
20101;SDS011;10210;52.284;9.892;2024-01-11T00:31:54;29.60;;;13.50;;
20101;SDS011;10210;52.284;9.892;2024-01-11T00:34:20;32.10;;;12.90;;
20101;SDS011;10210;52.284;9.892;2024-01-11T00:36:46;31.57;;;13.77;;
20101;SDS011;10210;52.284;9.892;2024-01-11T00:39:12;29.43;;;13.13;;
20101;SDS011;10210;52.284;9.892;2024-01-11T00:41:38;33.37;;;13.63;;
20101;SDS011;10210;52.284;9.892;2024-01-11T00:44:04;29.23;;;13.23;;
20101;SDS011;10210;52.284;9.892;2024-01-11T00:46:29;30.10;;;13.73;;
20101;SDS011;10210;52.284;9.892;2024-01-11T00:48:55;29.37;;;13.80;;
20101;SDS011;10210;52.284;9.892;2024-01-11T00:51:21;29.37;;;12.73;;
20101;SDS011;10210;52.284;9.892;2024-01-11T00:53:47;29.13;;;12.57;;
20101;SDS011;10210;52.284;9.892;2024-01-11T00:56:16;31.93;;;13.40;;
20101;SDS011;10210;52.284;9.892;2024-01-11T00:58:42;35.07;;;14.30;;
20101;SDS011;10210;52.284;9.892;2024-01-11T01:01:08;29.80;;;12.60;;
20101;SDS011;10210;52.284;9.892;2024-01-11T01:03:35;30.00;;;13.03;;
20101;SDS011;10210;52.284;9.892;2024-01-11T01:06:01;27.57;;;11.73;;
20101;SDS011;10210;52.284;9.892;2024-01-11T01:08:27;32.30;;;13.70;;
20101;SDS011;10210;52.284;9.892;2024-01-11T01:10:54;29.57;;;12.50;;
20101;SDS011;10210;52.284;9.892;2024-01-11T01:13:19;27.17;;;12.60;;
20101;SDS011;10210;52.284;9.892;2024-01-11T01:15:45;29.90;;;13.27;;
20101;SDS011;10210;52.284;9.892;2024-01-11T01:18:11;33.97;;;13.47;;
20101;SDS011;10210;52.284;9.892;2024-01-11T01:20:37;31.13;;;12.83;;
20101;SDS011;10210;52.284;9.892;2024-01-11T01:23:03;34.17;;;13.40;;
20101;SDS011;10210;52.284;9.892;2024-01-11T01:25:29;29.43;;;12.40;;
20101;SDS011;10210;52.284;9.892;2024-01-11T01:27:55;29.63;;;12.60;;
20101;SDS011;10210;52.284;9.892;2024-01-11T01:30:21;30.67;;;12.70;;
20101;SDS011;10210;52.284;9.892;2024-01-11T01:32:48;29.40;;;12.63;;
20101;SDS011;10210;52.284;9.892;2024-01-11T01:35:13;31.50;;;13.10;;
20101;SDS011;10210;52.284;9.892;2024-01-11T01:37:39;30.17;;;13.40;;
20101;SDS011;10210;52.284;9.892;2024-01-11T01:40:05;32.33;;;13.17;;
20101;SDS011;10210;52.284;9.892;2024-01-11T01:42:32;30.07;;;12.83;;
20101;SDS011;10210;52.284;9.892;2024-01-11T01:44:58;29.47;;;13.23;;
20101;SDS011;10210;52.284;9.892;2024-01-11T01:47:25;31.10;;;13.47;;
20101;SDS011;10210;52.284;9.892;2024-01-11T01:49:52;29.43;;;12.33;;
20101;SDS011;10210;52.284;9.892;2024-01-11T01:52:20;31.10;;;14.30;;
20101;SDS011;10210;52.284;9.892;2024-01-11T01:54:47;31.40;;;12.47;;
20101;SDS011;10210;52.284;9.892;2024-01-11T01:57:15;31.33;;;13.43;;
20101;SDS011;10210;52.284;9.892;2024-01-11T01:59:43;30.23;;;12.37;;
20101;SDS011;10210;52.284;9.892;2024-01-11T02:02:13;28.93;;;11.73;;
20101;SDS011;10210;52.284;9.892;2024-01-11T02:04:39;29.47;;;11.97;;
20101;SDS011;10210;52.284;9.892;2024-01-11T02:07:05;27.27;;;12.00;;
20101;SDS011;10210;52.284;9.892;2024-01-11T02:09:31;30.63;;;12.53;;
20101;SDS011;10210;52.284;9.892;2024-01-11T02:11:58;27.70;;;11.40;;
20101;SDS011;10210;52.284;9.892;2024-01-11T02:14:25;26.97;;;10.53;;
20101;SDS011;10210;52.284;9.892;2024-01-11T02:16:52;27.40;;;11.53;;
20101;SDS011;10210;52.284;9.892;2024-01-11T02:19:18;26.87;;;10.27;;
20101;SDS011;10210;52.284;9.892;2024-01-11T02:21:46;27.67;;;11.23;;
20101;SDS011;10210;52.284;9.892;2024-01-11T02:24:14;28.70;;;12.40;;
20101;SDS011;10210;52.284;9.892;2024-01-11T02:26:59;27.57;;;10.60;;
20101;SDS011;10210;52.284;9.892;2024-01-11T02:29:30;28.07;;;11.70;;
20101;SDS011;10210;52.284;9.892;2024-01-11T02:31:56;28.13;;;12.63;;
20101;SDS011;10210;52.284;9.892;2024-01-11T02:34:26;26.87;;;11.50;;
20101;SDS011;10210;52.284;9.892;2024-01-11T02:36:55;31.03;;;12.97;;
20101;SDS011;10210;52.284;9.892;2024-01-11T02:39:22;33.50;;;12.73;;
20101;SDS011;10210;52.284;9.892;2024-01-11T02:41:50;27.03;;;11.10;;
20101;SDS011;10210;52.284;9.892;2024-01-11T02:44:22;29.10;;;12.17;;
20101;SDS011;10210;52.284;9.892;2024-01-11T02:46:47;30.40;;;12.53;;
20101;SDS011;10210;52.284;9.892;2024-01-11T02:49:13;28.10;;;12.03;;
20101;SDS011;10210;52.284;9.892;2024-01-11T02:51:39;30.77;;;13.00;;
20101;SDS011;10210;52.284;9.892;2024-01-11T02:54:05;30.00;;;13.33;;
20101;SDS011;10210;52.284;9.892;2024-01-11T02:56:31;34.27;;;14.40;;
20101;SDS011;10210;52.284;9.892;2024-01-11T02:58:57;31.53;;;12.93;;
20101;SDS011;10210;52.284;9.892;2024-01-11T03:01:23;32.37;;;13.50;;
20101;SDS011;10210;52.284;9.892;2024-01-11T03:03:48;29.93;;;13.73;;
20101;SDS011;10210;52.284;9.892;2024-01-11T03:06:14;28.30;;;11.87;;
20101;SDS011;10210;52.284;9.892;2024-01-11T03:08:42;29.10;;;13.63;;
20101;SDS011;10210;52.284;9.892;2024-01-11T03:11:08;30.33;;;12.87;;
20101;SDS011;10210;52.284;9.892;2024-01-11T03:13:34;32.93;;;12.83;;
20101;SDS011;10210;52.284;9.892;2024-01-11T03:15:59;34.97;;;14.47;;
20101;SDS011;10210;52.284;9.892;2024-01-11T03:18:25;31.07;;;13.00;;
20101;SDS011;10210;52.284;9.892;2024-01-11T03:20:50;30.57;;;12.90;;
20101;SDS011;10210;52.284;9.892;2024-01-11T03:23:16;30.97;;;12.90;;
20101;SDS011;10210;52.284;9.892;2024-01-11T03:25:41;29.43;;;11.93;;
20101;SDS011;10210;52.284;9.892;2024-01-11T03:28:07;28.90;;;12.07;;
20101;SDS011;10210;52.284;9.892;2024-01-11T03:30:33;32.47;;;12.97;;
20101;SDS011;10210;52.284;9.892;2024-01-11T03:32:58;33.23;;;14.13;;
20101;SDS011;10210;52.284;9.892;2024-01-11T03:35:24;33.50;;;13.70;;
20101;SDS011;10210;52.284;9.892;2024-01-11T03:37:49;34.27;;;14.93;;
20101;SDS011;10210;52.284;9.892;2024-01-11T03:40:16;31.70;;;13.73;;
20101;SDS011;10210;52.284;9.892;2024-01-11T03:42:42;33.17;;;14.17;;
20101;SDS011;10210;52.284;9.892;2024-01-11T03:45:08;30.20;;;12.43;;
20101;SDS011;10210;52.284;9.892;2024-01-11T03:47:34;33.37;;;13.27;;
20101;SDS011;10210;52.284;9.892;2024-01-11T03:50:00;33.97;;;13.40;;
20101;SDS011;10210;52.284;9.892;2024-01-11T03:52:25;33.20;;;13.37;;
20101;SDS011;10210;52.284;9.892;2024-01-11T03:54:51;30.80;;;12.33;;
20101;SDS011;10210;52.284;9.892;2024-01-11T03:57:17;28.40;;;11.97;;
20101;SDS011;10210;52.284;9.892;2024-01-11T03:59:42;30.40;;;12.23;;
20101;SDS011;10210;52.284;9.892;2024-01-11T04:02:08;28.43;;;12.23;;
20101;SDS011;10210;52.284;9.892;2024-01-11T04:04:34;32.87;;;13.40;;
20101;SDS011;10210;52.284;9.892;2024-01-11T04:07:00;29.67;;;11.93;;
20101;SDS011;10210;52.284;9.892;2024-01-11T04:09:25;28.40;;;11.83;;
20101;SDS011;10210;52.284;9.892;2024-01-11T04:11:51;29.20;;;12.00;;
20101;SDS011;10210;52.284;9.892;2024-01-11T04:14:17;32.50;;;13.50;;
20101;SDS011;10210;52.284;9.892;2024-01-11T04:16:43;30.47;;;12.43;;
20101;SDS011;10210;52.284;9.892;2024-01-11T04:19:10;30.50;;;12.27;;
20101;SDS011;10210;52.284;9.892;2024-01-11T04:21:41;34.13;;;13.53;;
20101;SDS011;10210;52.284;9.892;2024-01-11T04:24:07;32.63;;;13.93;;
20101;SDS011;10210;52.284;9.892;2024-01-11T04:26:33;30.77;;;12.13;;
20101;SDS011;10210;52.284;9.892;2024-01-11T04:28:59;28.07;;;12.43;;
20101;SDS011;10210;52.284;9.892;2024-01-11T04:31:25;30.97;;;11.87;;
20101;SDS011;10210;52.284;9.892;2024-01-11T04:33:51;34.20;;;14.10;;
20101;SDS011;10210;52.284;9.892;2024-01-11T04:36:17;29.07;;;12.03;;
20101;SDS011;10210;52.284;9.892;2024-01-11T04:38:43;33.43;;;13.43;;
20101;SDS011;10210;52.284;9.892;2024-01-11T04:41:11;32.53;;;12.93;;
20101;SDS011;10210;52.284;9.892;2024-01-11T04:43:38;32.73;;;13.57;;
20101;SDS011;10210;52.284;9.892;2024-01-11T04:46:17;29.27;;;13.07;;
20101;SDS011;10210;52.284;9.892;2024-01-11T04:48:48;29.50;;;12.60;;
20101;SDS011;10210;52.284;9.892;2024-01-11T04:51:15;31.17;;;13.13;;
20101;SDS011;10210;52.284;9.892;2024-01-11T04:53:42;33.00;;;12.90;;
20101;SDS011;10210;52.284;9.892;2024-01-11T04:56:12;31.63;;;13.50;;
20101;SDS011;10210;52.284;9.892;2024-01-11T04:58:41;27.70;;;11.70;;
20101;SDS011;10210;52.284;9.892;2024-01-11T05:01:12;30.37;;;11.87;;
20101;SDS011;10210;52.284;9.892;2024-01-11T05:03:39;31.03;;;12.93;;
20101;SDS011;10210;52.284;9.892;2024-01-11T05:06:05;27.53;;;11.30;;
20101;SDS011;10210;52.284;9.892;2024-01-11T05:08:31;27.60;;;12.33;;
20101;SDS011;10210;52.284;9.892;2024-01-11T05:10:57;27.77;;;11.60;;
20101;SDS011;10210;52.284;9.892;2024-01-11T05:13:22;30.10;;;12.77;;
20101;SDS011;10210;52.284;9.892;2024-01-11T05:15:49;28.77;;;12.33;;
20101;SDS011;10210;52.284;9.892;2024-01-11T05:18:14;27.47;;;11.20;;
20101;SDS011;10210;52.284;9.892;2024-01-11T05:20:40;29.87;;;12.17;;
20101;SDS011;10210;52.284;9.892;2024-01-11T05:23:06;30.63;;;12.43;;
20101;SDS011;10210;52.284;9.892;2024-01-11T05:25:32;29.23;;;12.60;;
20101;SDS011;10210;52.284;9.892;2024-01-11T05:28:01;25.67;;;10.93;;
20101;SDS011;10210;52.284;9.892;2024-01-11T05:30:28;29.07;;;12.23;;
20101;SDS011;10210;52.284;9.892;2024-01-11T05:32:55;25.53;;;10.23;;
20101;SDS011;10210;52.284;9.892;2024-01-11T05:35:21;27.73;;;11.33;;
20101;SDS011;10210;52.284;9.892;2024-01-11T05:37:52;28.63;;;11.20;;
20101;SDS011;10210;52.284;9.892;2024-01-11T05:40:20;27.30;;;11.10;;
20101;SDS011;10210;52.284;9.892;2024-01-11T05:42:46;27.43;;;11.30;;
20101;SDS011;10210;52.284;9.892;2024-01-11T05:45:12;28.43;;;11.07;;
20101;SDS011;10210;52.284;9.892;2024-01-11T05:47:41;28.63;;;11.10;;
20101;SDS011;10210;52.284;9.892;2024-01-11T05:50:08;26.60;;;11.33;;
20101;SDS011;10210;52.284;9.892;2024-01-11T05:52:35;28.30;;;11.80;;
20101;SDS011;10210;52.284;9.892;2024-01-11T05:55:00;31.00;;;12.43;;
20101;SDS011;10210;52.284;9.892;2024-01-11T05:57:26;31.73;;;12.83;;
20101;SDS011;10210;52.284;9.892;2024-01-11T05:59:52;27.83;;;11.70;;
20101;SDS011;10210;52.284;9.892;2024-01-11T06:02:17;28.27;;;10.80;;
20101;SDS011;10210;52.284;9.892;2024-01-11T06:04:43;28.30;;;11.80;;
20101;SDS011;10210;52.284;9.892;2024-01-11T06:07:09;29.37;;;11.47;;
20101;SDS011;10210;52.284;9.892;2024-01-11T06:09:35;29.23;;;12.07;;
20101;SDS011;10210;52.284;9.892;2024-01-11T06:12:00;32.30;;;13.40;;
20101;SDS011;10210;52.284;9.892;2024-01-11T06:14:26;29.90;;;12.93;;
20101;SDS011;10210;52.284;9.892;2024-01-11T06:16:52;29.10;;;11.97;;
20101;SDS011;10210;52.284;9.892;2024-01-11T06:19:18;30.23;;;13.07;;
20101;SDS011;10210;52.284;9.892;2024-01-11T06:21:43;29.07;;;11.87;;
20101;SDS011;10210;52.284;9.892;2024-01-11T06:24:09;28.03;;;11.67;;
20101;SDS011;10210;52.284;9.892;2024-01-11T06:26:34;28.33;;;11.07;;
20101;SDS011;10210;52.284;9.892;2024-01-11T06:29:00;26.10;;;12.03;;
20101;SDS011;10210;52.284;9.892;2024-01-11T06:31:26;28.50;;;12.50;;
20101;SDS011;10210;52.284;9.892;2024-01-11T06:33:51;28.17;;;12.00;;
20101;SDS011;10210;52.284;9.892;2024-01-11T06:36:17;27.50;;;11.10;;
20101;SDS011;10210;52.284;9.892;2024-01-11T06:38:43;27.83;;;12.00;;
20101;SDS011;10210;52.284;9.892;2024-01-11T06:41:08;29.23;;;13.07;;
20101;SDS011;10210;52.284;9.892;2024-01-11T06:43:34;32.70;;;12.50;;
20101;SDS011;10210;52.284;9.892;2024-01-11T06:46:05;29.30;;;12.40;;
20101;SDS011;10210;52.284;9.892;2024-01-11T06:48:32;28.37;;;12.30;;
20101;SDS011;10210;52.284;9.892;2024-01-11T06:50:58;30.07;;;12.30;;
20101;SDS011;10210;52.284;9.892;2024-01-11T06:53:24;32.33;;;13.40;;
20101;SDS011;10210;52.284;9.892;2024-01-11T06:55:49;30.80;;;13.07;;
20101;SDS011;10210;52.284;9.892;2024-01-11T06:58:17;33.03;;;13.53;;
20101;SDS011;10210;52.284;9.892;2024-01-11T07:00:47;34.67;;;13.93;;
20101;SDS011;10210;52.284;9.892;2024-01-11T07:03:16;37.93;;;14.33;;
20101;SDS011;10210;52.284;9.892;2024-01-11T07:05:42;35.03;;;15.67;;
20101;SDS011;10210;52.284;9.892;2024-01-11T07:08:08;39.53;;;15.97;;
20101;SDS011;10210;52.284;9.892;2024-01-11T07:10:34;38.57;;;16.40;;
20101;SDS011;10210;52.284;9.892;2024-01-11T07:12:59;33.67;;;15.07;;
20101;SDS011;10210;52.284;9.892;2024-01-11T07:15:25;31.50;;;13.73;;
20101;SDS011;10210;52.284;9.892;2024-01-11T07:17:51;31.80;;;13.77;;
20101;SDS011;10210;52.284;9.892;2024-01-11T07:20:18;35.93;;;14.80;;
20101;SDS011;10210;52.284;9.892;2024-01-11T07:22:43;32.57;;;14.13;;
20101;SDS011;10210;52.284;9.892;2024-01-11T07:25:10;34.73;;;15.43;;
20101;SDS011;10210;52.284;9.892;2024-01-11T07:27:36;32.47;;;14.17;;
20101;SDS011;10210;52.284;9.892;2024-01-11T07:30:02;33.60;;;14.50;;
20101;SDS011;10210;52.284;9.892;2024-01-11T07:32:28;30.27;;;13.30;;
20101;SDS011;10210;52.284;9.892;2024-01-11T07:34:54;33.63;;;14.30;;
20101;SDS011;10210;52.284;9.892;2024-01-11T07:37:19;33.17;;;13.80;;
20101;SDS011;10210;52.284;9.892;2024-01-11T07:39:46;31.83;;;12.63;;
20101;SDS011;10210;52.284;9.892;2024-01-11T07:42:13;30.40;;;12.27;;
20101;SDS011;10210;52.284;9.892;2024-01-11T07:44:39;33.10;;;12.97;;
20101;SDS011;10210;52.284;9.892;2024-01-11T07:47:05;31.27;;;12.87;;
20101;SDS011;10210;52.284;9.892;2024-01-11T07:49:31;29.87;;;12.50;;
20101;SDS011;10210;52.284;9.892;2024-01-11T07:51:57;28.77;;;12.93;;
20101;SDS011;10210;52.284;9.892;2024-01-11T07:54:22;28.17;;;12.50;;
20101;SDS011;10210;52.284;9.892;2024-01-11T07:56:48;33.27;;;13.63;;
20101;SDS011;10210;52.284;9.892;2024-01-11T07:59:13;34.47;;;14.27;;
20101;SDS011;10210;52.284;9.892;2024-01-11T08:01:40;31.73;;;13.87;;
20101;SDS011;10210;52.284;9.892;2024-01-11T08:04:06;34.60;;;14.80;;
20101;SDS011;10210;52.284;9.892;2024-01-11T08:06:31;36.70;;;16.27;;
20101;SDS011;10210;52.284;9.892;2024-01-11T08:08:57;34.67;;;15.57;;
20101;SDS011;10210;52.284;9.892;2024-01-11T08:11:23;34.13;;;15.67;;
20101;SDS011;10210;52.284;9.892;2024-01-11T08:13:48;34.77;;;15.20;;
20101;SDS011;10210;52.284;9.892;2024-01-11T08:16:17;36.10;;;15.07;;
20101;SDS011;10210;52.284;9.892;2024-01-11T08:18:43;35.27;;;15.43;;
20101;SDS011;10210;52.284;9.892;2024-01-11T08:21:12;36.47;;;16.00;;
20101;SDS011;10210;52.284;9.892;2024-01-11T08:23:41;33.27;;;14.73;;
20101;SDS011;10210;52.284;9.892;2024-01-11T08:26:14;34.93;;;15.40;;
20101;SDS011;10210;52.284;9.892;2024-01-11T08:28:40;37.17;;;16.60;;
20101;SDS011;10210;52.284;9.892;2024-01-11T08:31:06;40.20;;;15.30;;
20101;SDS011;10210;52.284;9.892;2024-01-11T08:33:33;40.60;;;16.70;;
20101;SDS011;10210;52.284;9.892;2024-01-11T08:36:01;44.00;;;23.30;;
20101;SDS011;10210;52.284;9.892;2024-01-11T08:38:28;44.47;;;19.37;;
20101;SDS011;10210;52.284;9.892;2024-01-11T08:40:55;36.33;;;16.70;;
20101;SDS011;10210;52.284;9.892;2024-01-11T08:43:21;34.23;;;14.63;;
20101;SDS011;10210;52.284;9.892;2024-01-11T08:45:46;37.50;;;16.73;;
20101;SDS011;10210;52.284;9.892;2024-01-11T08:48:12;37.53;;;15.17;;
20101;SDS011;10210;52.284;9.892;2024-01-11T08:50:38;33.00;;;14.17;;
20101;SDS011;10210;52.284;9.892;2024-01-11T08:53:04;33.07;;;14.93;;
20101;SDS011;10210;52.284;9.892;2024-01-11T08:55:30;33.77;;;13.97;;
20101;SDS011;10210;52.284;9.892;2024-01-11T08:57:55;35.10;;;14.70;;
20101;SDS011;10210;52.284;9.892;2024-01-11T09:00:21;38.37;;;15.77;;
20101;SDS011;10210;52.284;9.892;2024-01-11T09:02:47;37.33;;;16.43;;
20101;SDS011;10210;52.284;9.892;2024-01-11T09:05:14;39.73;;;15.83;;
20101;SDS011;10210;52.284;9.892;2024-01-11T09:07:40;36.50;;;15.87;;
20101;SDS011;10210;52.284;9.892;2024-01-11T09:10:06;34.77;;;15.47;;
20101;SDS011;10210;52.284;9.892;2024-01-11T09:12:39;33.47;;;16.23;;
20101;SDS011;10210;52.284;9.892;2024-01-11T09:15:04;35.40;;;14.50;;
20101;SDS011;10210;52.284;9.892;2024-01-11T09:17:31;33.80;;;15.13;;
20101;SDS011;10210;52.284;9.892;2024-01-11T09:19:57;36.80;;;15.47;;
20101;SDS011;10210;52.284;9.892;2024-01-11T09:22:23;34.37;;;15.93;;
20101;SDS011;10210;52.284;9.892;2024-01-11T09:24:48;32.63;;;15.87;;
20101;SDS011;10210;52.284;9.892;2024-01-11T09:27:14;35.57;;;16.07;;
20101;SDS011;10210;52.284;9.892;2024-01-11T09:29:45;32.80;;;14.87;;
20101;SDS011;10210;52.284;9.892;2024-01-11T09:32:12;36.47;;;15.30;;
20101;SDS011;10210;52.284;9.892;2024-01-11T09:34:38;38.47;;;15.80;;
20101;SDS011;10210;52.284;9.892;2024-01-11T09:37:04;33.97;;;14.73;;
20101;SDS011;10210;52.284;9.892;2024-01-11T09:39:30;31.60;;;13.23;;
20101;SDS011;10210;52.284;9.892;2024-01-11T09:41:57;31.60;;;13.37;;
20101;SDS011;10210;52.284;9.892;2024-01-11T09:44:31;34.53;;;13.80;;
20101;SDS011;10210;52.284;9.892;2024-01-11T09:46:58;33.83;;;13.73;;
20101;SDS011;10210;52.284;9.892;2024-01-11T09:49:27;30.93;;;12.73;;
20101;SDS011;10210;52.284;9.892;2024-01-11T09:51:55;28.27;;;12.07;;
20101;SDS011;10210;52.284;9.892;2024-01-11T09:54:22;27.67;;;11.53;;
20101;SDS011;10210;52.284;9.892;2024-01-11T09:56:50;29.23;;;12.07;;
20101;SDS011;10210;52.284;9.892;2024-01-11T09:59:19;31.27;;;12.37;;
20101;SDS011;10210;52.284;9.892;2024-01-11T10:01:49;26.53;;;10.70;;
20101;SDS011;10210;52.284;9.892;2024-01-11T10:04:15;29.33;;;11.07;;
20101;SDS011;10210;52.284;9.892;2024-01-11T10:06:42;28.57;;;11.50;;
20101;SDS011;10210;52.284;9.892;2024-01-11T10:09:08;28.13;;;11.77;;
20101;SDS011;10210;52.284;9.892;2024-01-11T10:11:34;28.47;;;11.93;;
20101;SDS011;10210;52.284;9.892;2024-01-11T10:14:01;28.07;;;11.60;;
20101;SDS011;10210;52.284;9.892;2024-01-11T10:16:29;26.63;;;11.03;;
20101;SDS011;10210;52.284;9.892;2024-01-11T10:18:55;29.60;;;13.20;;
20101;SDS011;10210;52.284;9.892;2024-01-11T10:21:22;26.27;;;11.43;;
20101;SDS011;10210;52.284;9.892;2024-01-11T10:23:49;31.80;;;12.90;;
20101;SDS011;10210;52.284;9.892;2024-01-11T10:26:15;26.70;;;11.17;;
20101;SDS011;10210;52.284;9.892;2024-01-11T10:28:44;29.97;;;11.47;;
20101;SDS011;10210;52.284;9.892;2024-01-11T10:31:12;30.43;;;12.90;;
20101;SDS011;10210;52.284;9.892;2024-01-11T10:33:40;30.47;;;12.87;;
20101;SDS011;10210;52.284;9.892;2024-01-11T10:36:06;28.23;;;12.20;;
20101;SDS011;10210;52.284;9.892;2024-01-11T10:38:35;28.87;;;11.77;;
20101;SDS011;10210;52.284;9.892;2024-01-11T10:41:04;29.43;;;10.97;;
20101;SDS011;10210;52.284;9.892;2024-01-11T10:43:36;26.80;;;11.03;;
20101;SDS011;10210;52.284;9.892;2024-01-11T10:46:03;31.80;;;10.83;;
20101;SDS011;10210;52.284;9.892;2024-01-11T10:48:31;27.30;;;10.43;;
20101;SDS011;10210;52.284;9.892;2024-01-11T10:51:05;25.07;;;9.87;;
20101;SDS011;10210;52.284;9.892;2024-01-11T10:53:44;29.50;;;11.70;;
20101;SDS011;10210;52.284;9.892;2024-01-11T10:56:23;28.30;;;11.27;;
20101;SDS011;10210;52.284;9.892;2024-01-11T10:58:50;32.13;;;13.83;;
20101;SDS011;10210;52.284;9.892;2024-01-11T11:01:17;28.80;;;11.30;;
20101;SDS011;10210;52.284;9.892;2024-01-11T11:03:46;30.77;;;12.53;;
20101;SDS011;10210;52.284;9.892;2024-01-11T11:06:13;29.53;;;11.90;;
20101;SDS011;10210;52.284;9.892;2024-01-11T11:08:43;29.67;;;12.33;;
20101;SDS011;10210;52.284;9.892;2024-01-11T11:11:13;37.07;;;18.03;;
20101;SDS011;10210;52.284;9.892;2024-01-11T11:13:39;30.63;;;13.17;;
20101;SDS011;10210;52.284;9.892;2024-01-11T11:16:07;28.60;;;12.00;;
20101;SDS011;10210;52.284;9.892;2024-01-11T11:18:33;26.97;;;11.60;;
20101;SDS011;10210;52.284;9.892;2024-01-11T11:21:06;29.87;;;11.83;;
20101;SDS011;10210;52.284;9.892;2024-01-11T11:23:38;32.63;;;12.67;;
20101;SDS011;10210;52.284;9.892;2024-01-11T11:26:05;28.90;;;11.07;;
20101;SDS011;10210;52.284;9.892;2024-01-11T11:28:34;29.03;;;10.97;;
20101;SDS011;10210;52.284;9.892;2024-01-11T11:31:01;26.47;;;11.37;;
20101;SDS011;10210;52.284;9.892;2024-01-11T11:33:28;27.50;;;10.77;;
20101;SDS011;10210;52.284;9.892;2024-01-11T11:35:59;28.00;;;10.87;;
20101;SDS011;10210;52.284;9.892;2024-01-11T11:38:25;25.20;;;9.37;;
20101;SDS011;10210;52.284;9.892;2024-01-11T11:40:57;24.90;;;10.67;;
20101;SDS011;10210;52.284;9.892;2024-01-11T11:43:29;25.00;;;9.97;;
20101;SDS011;10210;52.284;9.892;2024-01-11T11:45:56;22.63;;;8.83;;
20101;SDS011;10210;52.284;9.892;2024-01-11T11:53:34;22.67;;;8.90;;
20101;SDS011;10210;52.284;9.892;2024-01-11T11:56:05;23.50;;;9.47;;
20101;SDS011;10210;52.284;9.892;2024-01-11T11:58:32;26.70;;;11.40;;
20101;SDS011;10210;52.284;9.892;2024-01-11T12:00:59;26.93;;;11.50;;
20101;SDS011;10210;52.284;9.892;2024-01-11T12:03:31;27.37;;;12.07;;
20101;SDS011;10210;52.284;9.892;2024-01-11T12:06:02;24.57;;;11.20;;
20101;SDS011;10210;52.284;9.892;2024-01-11T12:08:30;23.80;;;10.70;;
20101;SDS011;10210;52.284;9.892;2024-01-11T12:10:57;20.73;;;8.50;;
20101;SDS011;10210;52.284;9.892;2024-01-11T12:13:24;23.43;;;9.03;;
20101;SDS011;10210;52.284;9.892;2024-01-11T12:15:50;23.33;;;9.33;;
20101;SDS011;10210;52.284;9.892;2024-01-11T12:18:16;22.20;;;8.87;;
20101;SDS011;10210;52.284;9.892;2024-01-11T12:20:42;24.73;;;9.17;;
20101;SDS011;10210;52.284;9.892;2024-01-11T12:23:08;28.00;;;8.53;;
20101;SDS011;10210;52.284;9.892;2024-01-11T12:25:34;22.70;;;9.00;;
20101;SDS011;10210;52.284;9.892;2024-01-11T12:28:01;23.30;;;8.73;;
20101;SDS011;10210;52.284;9.892;2024-01-11T12:30:27;20.27;;;8.60;;
20101;SDS011;10210;52.284;9.892;2024-01-11T12:32:55;23.27;;;9.03;;
20101;SDS011;10210;52.284;9.892;2024-01-11T12:35:21;19.90;;;8.23;;
20101;SDS011;10210;52.284;9.892;2024-01-11T12:37:54;22.40;;;8.90;;
20101;SDS011;10210;52.284;9.892;2024-01-11T12:40:37;25.17;;;9.83;;
20101;SDS011;10210;52.284;9.892;2024-01-11T12:43:03;23.93;;;9.43;;
20101;SDS011;10210;52.284;9.892;2024-01-11T12:45:31;23.47;;;9.30;;
20101;SDS011;10210;52.284;9.892;2024-01-11T12:48:00;25.63;;;9.90;;
20101;SDS011;10210;52.284;9.892;2024-01-11T12:50:28;25.97;;;9.40;;
20101;SDS011;10210;52.284;9.892;2024-01-11T12:55:31;24.57;;;9.00;;
20101;SDS011;10210;52.284;9.892;2024-01-11T12:58:05;21.73;;;8.70;;
20101;SDS011;10210;52.284;9.892;2024-01-11T13:00:34;21.13;;;8.20;;
20101;SDS011;10210;52.284;9.892;2024-01-11T13:03:01;20.03;;;8.10;;
20101;SDS011;10210;52.284;9.892;2024-01-11T13:05:28;27.63;;;13.53;;
20101;SDS011;10210;52.284;9.892;2024-01-11T13:07:59;21.43;;;8.47;;
20101;SDS011;10210;52.284;9.892;2024-01-11T13:10:33;25.53;;;9.13;;
20101;SDS011;10210;52.284;9.892;2024-01-11T13:13:00;22.07;;;8.43;;
20101;SDS011;10210;52.284;9.892;2024-01-11T13:15:28;23.37;;;8.37;;
20101;SDS011;10210;52.284;9.892;2024-01-11T13:17:54;24.00;;;9.67;;
20101;SDS011;10210;52.284;9.892;2024-01-11T13:20:21;23.63;;;9.87;;
20101;SDS011;10210;52.284;9.892;2024-01-11T13:22:47;21.77;;;9.40;;
20101;SDS011;10210;52.284;9.892;2024-01-11T13:25:14;25.17;;;9.30;;
20101;SDS011;10210;52.284;9.892;2024-01-11T13:27:40;22.20;;;8.93;;
20101;SDS011;10210;52.284;9.892;2024-01-11T13:30:06;25.53;;;9.43;;
20101;SDS011;10210;52.284;9.892;2024-01-11T13:32:33;22.57;;;8.00;;
20101;SDS011;10210;52.284;9.892;2024-01-11T13:34:59;23.77;;;10.53;;
20101;SDS011;10210;52.284;9.892;2024-01-11T13:37:25;27.83;;;12.77;;
20101;SDS011;10210;52.284;9.892;2024-01-11T13:39:51;27.43;;;13.50;;
20101;SDS011;10210;52.284;9.892;2024-01-11T13:42:16;30.87;;;13.40;;
20101;SDS011;10210;52.284;9.892;2024-01-11T13:44:42;29.67;;;14.00;;
20101;SDS011;10210;52.284;9.892;2024-01-11T13:47:08;31.73;;;15.43;;
20101;SDS011;10210;52.284;9.892;2024-01-11T13:49:33;34.83;;;16.70;;
20101;SDS011;10210;52.284;9.892;2024-01-11T13:51:59;34.93;;;16.27;;
20101;SDS011;10210;52.284;9.892;2024-01-11T13:54:25;31.17;;;15.03;;
20101;SDS011;10210;52.284;9.892;2024-01-11T13:56:51;36.77;;;17.90;;
20101;SDS011;10210;52.284;9.892;2024-01-11T13:59:17;33.00;;;14.77;;
20101;SDS011;10210;52.284;9.892;2024-01-11T14:01:43;31.60;;;14.50;;
20101;SDS011;10210;52.284;9.892;2024-01-11T14:04:09;27.33;;;12.63;;
20101;SDS011;10210;52.284;9.892;2024-01-11T14:06:34;29.23;;;13.77;;
20101;SDS011;10210;52.284;9.892;2024-01-11T14:09:00;32.63;;;15.03;;
20101;SDS011;10210;52.284;9.892;2024-01-11T14:11:27;28.00;;;13.07;;
20101;SDS011;10210;52.284;9.892;2024-01-11T14:13:53;26.77;;;12.23;;
20101;SDS011;10210;52.284;9.892;2024-01-11T14:16:19;30.40;;;14.23;;
20101;SDS011;10210;52.284;9.892;2024-01-11T14:18:44;28.00;;;13.50;;
20101;SDS011;10210;52.284;9.892;2024-01-11T14:21:12;26.23;;;11.87;;
20101;SDS011;10210;52.284;9.892;2024-01-11T14:23:37;31.60;;;14.07;;
20101;SDS011;10210;52.284;9.892;2024-01-11T14:26:03;34.40;;;16.77;;
20101;SDS011;10210;52.284;9.892;2024-01-11T14:28:29;43.37;;;21.60;;